createdAt,value
2023-03-23T15:58:45.259Z,2.40
2023-03-23T16:00:48.213Z,2.40
2023-03-23T16:02:54.045Z,2.40
2023-03-23T16:04:56.930Z,2.80
2023-03-23T16:07:00.046Z,2.70
2023-03-23T16:09:03.551Z,2.67
2023-03-23T16:11:08.066Z,2.97
2023-03-23T16:13:11.590Z,2.70
2023-03-23T16:15:14.810Z,2.87
2023-03-23T16:17:20.420Z,2.57
2023-03-23T16:19:24.508Z,2.60
2023-03-23T16:21:27.553Z,2.70
2023-03-23T16:23:30.352Z,3.30
2023-03-23T16:25:33.123Z,2.60
2023-03-23T16:27:37.332Z,3.40
2023-03-23T16:30:02.020Z,2.60
2023-03-23T16:32:02.940Z,2.67
2023-03-23T16:34:06.052Z,3.23
2023-03-23T16:36:11.680Z,2.70
2023-03-23T16:38:16.232Z,2.90
2023-03-23T16:40:19.767Z,2.30
2023-03-23T16:42:22.563Z,2.60
2023-03-23T16:44:26.687Z,2.77
2023-03-23T16:46:29.654Z,2.43
2023-03-23T16:48:32.522Z,2.73
2023-03-23T16:50:35.468Z,3.30
2023-03-23T16:52:45.974Z,2.90
2023-03-23T16:54:49.454Z,2.90
2023-03-23T16:56:52.314Z,3.10
2023-03-23T16:58:55.281Z,3.07
2023-03-23T17:00:59.394Z,3.13
2023-03-23T17:03:02.256Z,3.17
2023-03-23T17:05:05.427Z,2.80
2023-03-23T17:07:08.221Z,3.80
2023-03-23T17:09:10.990Z,3.10
2023-03-23T17:11:13.758Z,3.20
2023-03-23T17:13:17.385Z,4.00
2023-03-23T17:15:20.548Z,2.90
2023-03-23T17:17:25.778Z,3.20
2023-03-23T17:19:28.542Z,4.50
2023-03-23T17:21:31.306Z,3.90
2023-03-23T17:23:34.111Z,3.90
2023-03-23T17:25:36.893Z,4.13
2023-03-23T17:27:39.811Z,3.87
2023-03-23T17:29:42.610Z,3.07
2023-03-23T17:31:45.407Z,4.23
2023-03-23T17:33:49.605Z,4.37
2023-03-23T17:35:52.650Z,4.23
2023-03-23T17:37:55.557Z,3.30
2023-03-23T17:39:58.489Z,4.00
2023-03-23T17:42:01.356Z,4.03
2023-03-23T17:44:04.135Z,4.20
2023-03-23T17:46:07.650Z,3.13
2023-03-23T17:48:10.535Z,3.60
2023-03-23T17:50:14.667Z,3.27
2023-03-23T17:52:17.452Z,3.63
2023-03-23T17:54:20.489Z,3.40
2023-03-23T17:56:23.256Z,4.07
2023-03-23T17:58:26.428Z,3.77
2023-03-23T18:00:29.231Z,3.73
2023-03-23T18:02:32.159Z,3.83
2023-03-23T18:04:35.398Z,3.93
2023-03-23T18:06:39.515Z,3.70
2023-03-23T18:08:42.368Z,4.20
2023-03-23T18:10:45.300Z,3.87
2023-03-23T18:12:49.640Z,4.20
2023-03-23T18:14:52.406Z,3.40
2023-03-23T18:16:55.562Z,4.33
2023-03-23T18:18:58.383Z,4.97
2023-03-23T18:21:02.489Z,4.57
2023-03-23T18:23:06.975Z,3.90
2023-03-23T18:25:09.905Z,3.27
2023-03-23T18:27:12.722Z,4.07
2023-03-23T18:29:15.528Z,3.87
2023-03-23T18:31:18.816Z,4.20
2023-03-23T18:33:22.240Z,4.63
2023-03-23T18:35:25.017Z,4.13
2023-03-23T18:37:27.816Z,4.63
2023-03-23T18:39:33.916Z,4.60
2023-03-23T18:41:36.751Z,4.50
2023-03-23T18:43:39.530Z,4.30
2023-03-23T18:45:42.491Z,4.50
2023-03-23T18:47:45.525Z,4.60
2023-03-23T18:49:51.323Z,4.73
2023-03-23T18:51:54.108Z,4.40
2023-03-23T18:53:57.041Z,4.43
2023-03-23T18:56:07.916Z,4.97
2023-03-23T18:58:11.085Z,4.73
2023-03-23T19:00:14.744Z,3.97
2023-03-23T19:02:18.806Z,4.47
2023-03-23T19:04:22.382Z,3.83
2023-03-23T19:06:26.461Z,3.97
2023-03-23T19:08:29.322Z,4.20
2023-03-23T19:10:32.242Z,4.50
2023-03-23T19:12:36.364Z,3.63
2023-03-23T19:14:39.985Z,4.90
2023-03-23T19:16:42.869Z,4.00
2023-03-23T19:18:45.661Z,3.83
2023-03-23T19:21:12.635Z,4.70
2023-03-23T19:23:13.384Z,3.90
2023-03-23T19:25:16.448Z,3.77
2023-03-23T19:27:21.015Z,5.30
2023-03-23T19:29:27.331Z,4.13
2023-03-23T19:31:30.530Z,4.13
2023-03-23T19:33:33.346Z,3.70
2023-03-23T19:35:36.194Z,4.43
2023-03-23T19:37:39.073Z,3.90
2023-03-23T19:39:43.039Z,4.60
2023-03-23T19:41:46.056Z,4.30
2023-03-23T19:43:49.164Z,4.53
2023-03-23T19:45:53.531Z,4.50
2023-03-23T19:47:56.331Z,4.67
2023-03-23T19:49:59.915Z,4.17
2023-03-23T19:52:09.406Z,4.10
2023-03-23T19:54:15.367Z,4.00
2023-03-23T19:56:19.331Z,3.77
2023-03-23T19:58:22.112Z,4.33
2023-03-23T20:00:25.141Z,4.30
2023-03-23T20:02:29.423Z,4.00
2023-03-23T20:04:32.332Z,4.97
2023-03-23T20:06:35.388Z,3.90
2023-03-23T20:08:38.807Z,4.17
2023-03-23T20:10:41.953Z,4.00
2023-03-23T20:12:44.866Z,3.87
2023-03-23T20:14:47.662Z,4.30
2023-03-23T20:16:50.438Z,4.87
2023-03-23T20:18:54.876Z,4.57
2023-03-23T20:21:04.152Z,4.20
2023-03-23T20:23:07.929Z,4.27
2023-03-23T20:25:10.882Z,4.40
2023-03-23T20:27:14.368Z,4.30
2023-03-23T20:29:17.142Z,4.27
2023-03-23T20:31:24.326Z,4.67
2023-03-23T20:33:30.359Z,4.60
2023-03-23T20:35:34.492Z,4.77
2023-03-23T20:37:38.519Z,4.50
2023-03-23T20:39:41.657Z,4.67
2023-03-23T20:41:44.504Z,4.20
2023-03-23T20:43:47.307Z,4.40
2023-03-23T20:45:50.068Z,4.70
2023-03-23T20:47:53.658Z,4.80
2023-03-23T20:49:56.571Z,4.50
2023-03-23T20:52:00.940Z,4.40
2023-03-23T20:54:03.868Z,3.93
2023-03-23T20:56:07.213Z,3.57
2023-03-23T20:58:09.983Z,3.83
2023-03-23T21:00:16.401Z,3.30
2023-03-23T21:02:19.675Z,3.23
2023-03-23T21:04:27.060Z,2.80
2023-03-23T21:06:30.896Z,2.90
2023-03-23T21:08:36.128Z,3.23
2023-03-23T21:10:39.227Z,3.20
2023-03-23T21:12:42.057Z,3.07
2023-03-23T21:14:46.051Z,3.20
2023-03-23T21:16:48.819Z,3.40
2023-03-23T21:18:51.751Z,3.67
2023-03-23T21:20:54.604Z,3.20
2023-03-23T21:22:57.377Z,2.80
2023-03-23T21:25:02.432Z,2.90
2023-03-23T21:27:05.374Z,3.97
2023-03-23T21:29:11.763Z,3.03
2023-03-23T21:31:15.171Z,3.17
2023-03-23T21:33:17.941Z,3.20
2023-03-23T21:35:20.880Z,3.40
2023-03-23T21:37:23.708Z,3.40
2023-03-23T21:39:26.492Z,3.40
2023-03-23T21:41:30.988Z,3.10
2023-03-23T21:43:45.716Z,2.70
2023-03-23T21:45:48.976Z,3.23
2023-03-23T21:47:57.758Z,3.53
2023-03-23T21:50:00.603Z,2.87
2023-03-23T21:52:03.359Z,3.10
2023-03-23T21:54:06.312Z,3.27
2023-03-23T21:56:10.453Z,2.40
2023-03-23T21:58:14.587Z,2.87
2023-03-23T22:00:18.870Z,2.13
2023-03-23T22:02:21.863Z,2.60
2023-03-23T22:04:24.769Z,3.00
2023-03-23T22:06:28.333Z,2.57
2023-03-23T22:08:30.160Z,2.90
2023-03-23T22:10:32.951Z,3.30
2023-03-23T22:12:35.816Z,2.87
2023-03-23T22:14:39.991Z,3.20
2023-03-23T22:16:42.743Z,3.37
2023-03-23T22:18:46.251Z,3.00
2023-03-23T22:20:49.196Z,3.10
2023-03-23T22:22:53.337Z,3.37
2023-03-23T22:24:56.382Z,3.53
2023-03-23T22:26:59.534Z,3.40
2023-03-23T22:29:02.426Z,3.10
2023-03-23T22:31:07.818Z,3.10
2023-03-23T22:33:10.645Z,2.97
2023-03-23T22:35:13.970Z,3.87
2023-03-23T22:37:18.656Z,3.10
2023-03-23T22:39:21.402Z,2.70
2023-03-23T22:41:25.982Z,2.93
2023-03-23T22:43:28.735Z,2.87
2023-03-23T22:45:31.569Z,3.00
2023-03-23T22:47:35.701Z,3.37
2023-03-23T22:49:38.493Z,3.43
2023-03-23T22:51:41.261Z,3.03
2023-03-23T22:53:44.034Z,3.43
2023-03-23T22:55:49.167Z,3.53
2023-03-23T22:57:51.918Z,3.17
2023-03-23T22:59:54.691Z,3.57
2023-03-23T23:01:57.448Z,3.53
2023-03-23T23:04:02.726Z,3.50
2023-03-23T23:06:06.077Z,3.00
2023-03-23T23:08:12.292Z,3.20
2023-03-23T23:10:15.050Z,3.57
2023-03-23T23:12:18.177Z,3.30
2023-03-23T23:14:20.998Z,3.30
2023-03-23T23:16:24.363Z,3.20
2023-03-23T23:18:27.521Z,3.23
2023-03-23T23:20:31.944Z,3.30
2023-03-23T23:22:34.826Z,2.67
2023-03-23T23:24:37.622Z,3.00
2023-03-23T23:26:40.512Z,3.70
2023-03-23T23:28:43.412Z,3.37
2023-03-23T23:30:46.602Z,3.27
2023-03-23T23:32:52.025Z,3.00
2023-03-23T23:34:54.875Z,2.80
2023-03-23T23:36:59.527Z,3.30
2023-03-23T23:39:03.458Z,4.13
2023-03-23T23:41:06.918Z,3.53
2023-03-23T23:43:10.869Z,3.30
2023-03-23T23:45:13.919Z,3.53
2023-03-23T23:47:16.710Z,3.07
2023-03-23T23:49:22.842Z,3.10
2023-03-23T23:51:27.442Z,3.00
2023-03-23T23:53:31.896Z,3.17
2023-03-23T23:55:34.695Z,3.30
2023-03-23T23:57:37.587Z,2.73
2023-03-23T23:59:40.635Z,3.37
